createdAt,value
2023-05-08T00:00:57.526Z,16.08
2023-05-08T00:03:23.821Z,16.00
2023-05-08T00:05:50.088Z,16.05
2023-05-08T00:08:16.166Z,15.81
2023-05-08T00:10:42.219Z,15.36
2023-05-08T00:13:08.288Z,15.79
2023-05-08T00:15:35.624Z,15.69
2023-05-08T00:18:01.712Z,15.70
2023-05-08T00:20:28.249Z,15.98
2023-05-08T00:22:54.410Z,15.52
2023-05-08T00:25:20.512Z,15.51
2023-05-08T00:27:46.810Z,15.51
2023-05-08T00:30:13.702Z,16.00
2023-05-08T00:32:40.038Z,16.00
2023-05-08T00:35:06.398Z,15.61
2023-05-08T00:37:32.469Z,15.81
2023-05-08T00:39:58.544Z,15.83
2023-05-08T00:42:24.605Z,14.85
2023-05-08T00:44:50.701Z,15.10
2023-05-08T00:47:16.793Z,14.86
2023-05-08T00:49:43.076Z,15.18
2023-05-08T00:52:09.468Z,14.21
2023-05-08T00:54:36.935Z,15.75
2023-05-08T00:57:06.094Z,15.99
2023-05-08T00:59:33.487Z,15.97
2023-05-08T01:02:00.444Z,15.47
2023-05-08T01:04:27.123Z,16.06
2023-05-08T01:06:53.237Z,16.11
2023-05-08T01:09:19.393Z,15.94
2023-05-08T01:12:05.831Z,16.05
2023-05-08T01:14:45.823Z,16.13
2023-05-08T01:17:17.869Z,16.03
2023-05-08T01:20:02.421Z,16.11
2023-05-08T01:22:50.177Z,16.03
2023-05-08T01:25:28.289Z,16.09
2023-05-08T01:28:03.381Z,16.10
2023-05-08T01:31:00.394Z,15.81
2023-05-08T01:33:43.328Z,15.96
2023-05-08T01:36:22.752Z,15.90
2023-05-08T01:38:55.398Z,15.83
2023-05-08T01:41:26.631Z,15.77
2023-05-08T01:44:08.827Z,14.61
2023-05-08T01:46:35.014Z,15.88
2023-05-08T01:49:35.017Z,15.64
2023-05-08T01:52:14.330Z,15.76
2023-05-08T01:54:48.443Z,15.85
2023-05-08T01:57:15.189Z,15.69
2023-05-08T01:59:42.345Z,15.60
2023-05-08T02:02:09.082Z,15.88
2023-05-08T02:04:35.228Z,15.57
2023-05-08T02:07:02.175Z,15.62
2023-05-08T02:09:29.128Z,14.43
2023-05-08T02:11:56.399Z,15.06
2023-05-08T02:14:23.034Z,15.49
2023-05-08T02:16:51.288Z,15.70
2023-05-08T02:19:17.695Z,15.67
2023-05-08T02:21:45.220Z,15.74
2023-05-08T02:24:12.915Z,15.74
2023-05-08T02:26:39.141Z,15.30
2023-05-08T02:29:05.331Z,14.64
2023-05-08T02:31:31.630Z,15.47
2023-05-08T02:33:59.143Z,15.46
2023-05-08T02:36:26.023Z,15.46
2023-05-08T02:38:53.582Z,15.47
2023-05-08T02:41:21.708Z,15.48
2023-05-08T02:43:49.104Z,14.49
2023-05-08T02:46:39.101Z,15.26
2023-05-08T02:49:12.764Z,14.64
2023-05-08T02:51:55.215Z,14.75
2023-05-08T02:54:30.380Z,15.43
2023-05-08T02:57:00.184Z,15.03
2023-05-08T02:59:38.920Z,15.38
2023-05-08T03:02:26.896Z,15.40
2023-05-08T03:04:57.124Z,15.54
2023-05-08T03:07:24.920Z,15.42
2023-05-08T03:10:02.462Z,15.47
2023-05-08T03:12:30.607Z,15.39
2023-05-08T03:15:02.533Z,15.34
2023-05-08T03:17:31.173Z,15.07
2023-05-08T03:20:00.796Z,14.94
2023-05-08T03:22:28.244Z,15.50
2023-05-08T03:24:55.942Z,15.38
2023-05-08T03:27:22.145Z,15.54
2023-05-08T03:29:50.099Z,15.43
2023-05-08T03:32:16.737Z,15.13
2023-05-08T03:34:43.281Z,14.59
2023-05-08T03:37:09.578Z,15.08
2023-05-08T03:39:35.839Z,14.84
2023-05-08T03:42:02.035Z,14.39
2023-05-08T03:44:29.511Z,14.76
2023-05-08T03:46:57.692Z,15.05
2023-05-08T03:49:25.755Z,14.70
2023-05-08T03:51:55.710Z,14.50
2023-05-08T03:54:24.752Z,15.05
2023-05-08T03:56:52.269Z,14.24
2023-05-08T03:59:23.948Z,15.03
2023-05-08T04:02:13.980Z,13.88
2023-05-08T04:04:41.234Z,14.88
2023-05-08T04:07:10.247Z,14.98
2023-05-08T04:10:02.135Z,14.76
2023-05-08T04:12:44.875Z,14.40
2023-05-08T04:15:17.340Z,14.57
2023-05-08T04:17:48.868Z,15.24
2023-05-08T04:20:17.781Z,13.84
2023-05-08T04:22:44.756Z,15.10
2023-05-08T04:25:12.102Z,15.13
2023-05-08T04:27:38.520Z,14.48
2023-05-08T04:30:05.477Z,14.78
2023-05-08T04:32:34.220Z,13.88
2023-05-08T04:35:00.387Z,14.69
2023-05-08T04:37:27.870Z,14.87
2023-05-08T04:39:54.251Z,14.85
2023-05-08T04:42:20.712Z,14.83
2023-05-08T04:44:46.978Z,14.85
2023-05-08T04:47:13.792Z,14.89
2023-05-08T04:49:39.997Z,14.53
2023-05-08T04:52:07.024Z,14.37
2023-05-08T04:54:33.623Z,14.63
2023-05-08T04:56:59.988Z,14.78
2023-05-08T04:59:26.212Z,14.81
2023-05-08T05:01:52.474Z,14.29
2023-05-08T05:04:18.532Z,14.69
2023-05-08T05:06:44.683Z,14.91
2023-05-08T05:09:11.127Z,14.73
2023-05-08T05:11:37.218Z,15.07
2023-05-08T05:14:03.366Z,14.88
2023-05-08T05:16:29.555Z,14.86
2023-05-08T05:18:55.745Z,14.55
2023-05-08T05:21:21.832Z,14.30
2023-05-08T05:23:47.947Z,15.29
2023-05-08T05:26:14.065Z,15.43
2023-05-08T05:28:40.196Z,15.33
2023-05-08T05:31:06.358Z,15.69
2023-05-08T05:33:32.699Z,15.37
2023-05-08T05:35:58.800Z,15.69
2023-05-08T05:38:25.008Z,14.12
2023-05-08T05:40:51.133Z,15.95
2023-05-08T05:43:17.253Z,15.68
2023-05-08T05:45:43.332Z,15.90
2023-05-08T05:48:09.468Z,16.45
2023-05-08T05:50:37.212Z,15.79
2023-05-08T05:53:03.409Z,15.88
2023-05-08T05:55:29.588Z,14.87
2023-05-08T05:57:55.685Z,16.02
2023-05-08T06:00:21.966Z,16.51
2023-05-08T06:02:48.142Z,16.13
2023-05-08T06:05:14.650Z,16.40
2023-05-08T06:07:40.909Z,15.80
2023-05-08T06:10:07.477Z,15.57
2023-05-08T06:12:33.611Z,15.99
2023-05-08T06:14:59.685Z,15.85
2023-05-08T06:17:26.188Z,15.11
2023-05-08T06:19:55.007Z,14.23
2023-05-08T06:22:22.586Z,15.91
2023-05-08T06:24:52.677Z,14.95
2023-05-08T06:27:20.321Z,15.13
2023-05-08T06:29:52.232Z,16.22
2023-05-08T06:32:21.539Z,16.74
2023-05-08T06:34:48.003Z,16.71
2023-05-08T06:37:14.077Z,16.97
2023-05-08T06:39:40.260Z,16.56
2023-05-08T06:42:06.404Z,16.88
2023-05-08T06:44:35.222Z,16.90
2023-05-08T06:47:01.503Z,17.00
2023-05-08T06:49:27.898Z,14.96
2023-05-08T06:51:56.494Z,16.11
2023-05-08T06:54:23.855Z,17.34
2023-05-08T06:56:52.276Z,17.19
2023-05-08T06:59:18.354Z,16.90
2023-05-08T07:01:44.587Z,17.50
2023-05-08T07:04:10.692Z,17.53
2023-05-08T07:06:36.763Z,16.90
2023-05-08T07:09:02.864Z,16.96
2023-05-08T07:11:29.000Z,17.73
2023-05-08T07:13:55.367Z,17.65
2023-05-08T07:16:21.490Z,17.43
2023-05-08T07:18:47.618Z,18.01
2023-05-08T07:21:15.258Z,17.15
2023-05-08T07:23:41.350Z,17.67
2023-05-08T07:26:07.568Z,18.17
2023-05-08T07:28:33.718Z,18.01
2023-05-08T07:31:00.048Z,17.62
2023-05-08T07:33:26.150Z,17.12
2023-05-08T07:35:52.229Z,17.23
2023-05-08T07:38:18.293Z,17.32
2023-05-08T07:40:45.208Z,17.63
2023-05-08T07:43:12.483Z,16.93
2023-05-08T07:45:38.619Z,18.09
2023-05-08T07:48:04.996Z,18.61
2023-05-08T07:50:31.104Z,17.25
2023-05-08T07:52:57.282Z,17.39
2023-05-08T07:55:23.387Z,18.01
2023-05-08T07:57:49.521Z,18.24
2023-05-08T08:00:16.140Z,18.27
2023-05-08T08:02:43.361Z,18.08
2023-05-08T08:05:09.711Z,18.17
2023-05-08T08:07:35.897Z,17.95
2023-05-08T08:10:05.487Z,18.21
2023-05-08T08:12:31.817Z,18.47
2023-05-08T08:14:57.893Z,18.17
2023-05-08T08:17:24.620Z,18.00
2023-05-08T08:19:52.764Z,18.19
2023-05-08T08:22:18.912Z,18.25
2023-05-08T08:24:45.075Z,17.91
2023-05-08T08:27:11.163Z,18.20
2023-05-08T08:29:37.234Z,18.50
2023-05-08T08:32:03.535Z,18.85
2023-05-08T08:34:29.675Z,19.27
2023-05-08T08:36:55.757Z,19.41
2023-05-08T08:39:21.997Z,19.75
2023-05-08T08:41:48.077Z,19.28
2023-05-08T08:44:14.236Z,19.15
2023-05-08T08:46:47.270Z,18.54
2023-05-08T08:49:14.265Z,18.40
2023-05-08T08:51:51.360Z,17.23
2023-05-08T08:54:21.087Z,18.31
2023-05-08T08:56:48.878Z,16.72
2023-05-08T08:59:16.095Z,18.21
2023-05-08T09:01:45.227Z,18.17
2023-05-08T09:04:11.655Z,18.33
2023-05-08T09:06:38.246Z,19.22
2023-05-08T09:09:04.870Z,19.47
2023-05-08T09:11:31.044Z,19.45
2023-05-08T09:13:58.024Z,19.37
2023-05-08T09:16:24.746Z,18.83
2023-05-08T09:18:51.168Z,20.15
2023-05-08T09:21:17.643Z,19.83
2023-05-08T09:23:56.168Z,20.04
2023-05-08T09:26:35.380Z,20.41
2023-05-08T09:29:19.386Z,20.52
2023-05-08T09:31:53.034Z,19.79
2023-05-08T09:34:27.607Z,19.82
2023-05-08T09:37:08.800Z,20.11
2023-05-08T09:39:35.090Z,19.85
2023-05-08T09:42:03.394Z,20.34
2023-05-08T09:44:51.670Z,20.68
2023-05-08T09:47:19.764Z,21.18
2023-05-08T09:50:03.252Z,20.46
2023-05-08T09:52:30.799Z,20.05
2023-05-08T09:55:01.605Z,19.90
2023-05-08T09:57:29.250Z,19.65
2023-05-08T10:00:12.204Z,20.34
2023-05-08T10:02:40.865Z,20.04
2023-05-08T10:05:30.587Z,19.51
2023-05-08T10:07:58.094Z,20.87
2023-05-08T10:10:26.368Z,20.45
2023-05-08T10:12:56.914Z,20.08
2023-05-08T10:15:25.000Z,20.33
2023-05-08T10:17:59.656Z,20.10
2023-05-08T10:20:29.069Z,19.63
2023-05-08T10:22:56.414Z,20.27
2023-05-08T10:25:23.419Z,19.97
2023-05-08T10:27:58.263Z,20.37
2023-05-08T10:30:25.783Z,20.56
2023-05-08T10:32:57.727Z,20.13
2023-05-08T10:35:24.659Z,20.73
2023-05-08T10:37:51.556Z,20.80
2023-05-08T10:40:20.954Z,20.62
2023-05-08T10:42:47.665Z,20.15
2023-05-08T10:45:13.963Z,20.75
2023-05-08T10:47:45.532Z,20.99
2023-05-08T10:50:35.840Z,21.15
2023-05-08T10:53:08.294Z,20.73
2023-05-08T10:55:39.065Z,20.73
2023-05-08T10:58:16.465Z,21.23
2023-05-08T11:00:48.783Z,21.03
2023-05-08T11:03:29.936Z,18.11
2023-05-08T11:05:59.374Z,21.88
2023-05-08T11:08:27.395Z,21.49
2023-05-08T11:11:00.125Z,22.08
2023-05-08T11:13:32.155Z,21.52
2023-05-08T11:15:58.394Z,22.00
2023-05-08T11:18:28.044Z,22.07
2023-05-08T11:20:58.632Z,22.30
2023-05-08T11:23:26.652Z,22.78
2023-05-08T11:26:17.050Z,22.65
2023-05-08T11:28:52.273Z,22.65
2023-05-08T11:31:18.563Z,22.22
2023-05-08T11:33:44.745Z,23.47
2023-05-08T11:36:22.051Z,23.17
2023-05-08T11:39:08.706Z,23.72
2023-05-08T11:41:35.427Z,23.34
2023-05-08T11:44:14.695Z,23.49
2023-05-08T11:46:43.353Z,22.21
2023-05-08T11:49:15.949Z,22.79
2023-05-08T11:51:45.020Z,23.40
2023-05-08T11:54:18.871Z,23.24
2023-05-08T11:56:47.903Z,23.01
2023-05-08T11:59:14.798Z,23.46
2023-05-08T12:01:41.233Z,23.31
2023-05-08T12:04:09.300Z,23.83
2023-05-08T12:06:41.551Z,24.18
2023-05-08T12:09:15.862Z,24.34
2023-05-08T12:11:44.429Z,23.24
2023-05-08T12:14:16.833Z,23.53
2023-05-08T12:16:43.001Z,23.20
2023-05-08T12:19:10.409Z,24.26
2023-05-08T12:21:36.656Z,24.23
2023-05-08T12:24:07.567Z,23.92
2023-05-08T12:26:37.415Z,24.08
2023-05-08T12:29:06.949Z,22.95
2023-05-08T12:31:34.950Z,24.49
2023-05-08T12:34:03.013Z,23.75
2023-05-08T12:36:33.291Z,24.75
2023-05-08T12:39:13.132Z,24.69
2023-05-08T12:41:49.730Z,24.40
2023-05-08T12:44:17.659Z,23.66
2023-05-08T12:46:50.174Z,24.63
2023-05-08T12:49:30.424Z,23.79
2023-05-08T12:52:07.432Z,24.47
2023-05-08T12:54:38.155Z,24.77
2023-05-08T12:57:18.893Z,24.78
2023-05-08T12:59:45.912Z,25.29
2023-05-08T13:02:23.171Z,24.91
2023-05-08T13:04:53.518Z,24.61
2023-05-08T13:07:19.732Z,24.06
2023-05-08T13:10:00.385Z,24.28
2023-05-08T13:12:26.570Z,24.57
2023-05-08T13:14:52.725Z,25.48
2023-05-08T13:17:18.801Z,24.68
2023-05-08T13:19:44.911Z,25.33
2023-05-08T13:22:10.990Z,25.21
2023-05-08T13:24:37.254Z,24.90
2023-05-08T13:27:03.398Z,24.99
2023-05-08T13:29:29.995Z,25.01
2023-05-08T13:31:56.099Z,25.31
2023-05-08T13:34:22.266Z,24.84
2023-05-08T13:36:48.915Z,25.17
2023-05-08T13:39:15.007Z,25.08
2023-05-08T13:41:41.145Z,24.97
2023-05-08T13:44:07.210Z,24.64
2023-05-08T13:46:33.394Z,24.63
2023-05-08T13:48:59.545Z,24.52
2023-05-08T13:51:25.752Z,23.78
2023-05-08T13:53:51.903Z,23.70
2023-05-08T13:56:18.057Z,24.37
2023-05-08T13:58:44.210Z,24.25
2023-05-08T14:01:24.807Z,24.55
2023-05-08T14:03:52.334Z,25.65
2023-05-08T14:06:19.810Z,25.74
2023-05-08T14:08:49.449Z,24.71
2023-05-08T14:11:17.169Z,23.52
2023-05-08T14:13:43.248Z,24.13
2023-05-08T14:16:11.730Z,24.94
2023-05-08T14:18:37.857Z,24.58
2023-05-08T14:21:03.949Z,25.15
2023-05-08T14:23:30.108Z,24.22
2023-05-08T14:25:56.204Z,25.26
2023-05-08T14:28:22.415Z,25.95
2023-05-08T14:30:48.483Z,25.88
2023-05-08T14:33:15.191Z,25.21
2023-05-08T14:35:42.751Z,24.85
2023-05-08T14:38:11.773Z,25.23
2023-05-08T14:40:37.867Z,25.40
2023-05-08T14:43:03.929Z,24.75
2023-05-08T14:45:30.012Z,24.97
2023-05-08T14:47:56.185Z,23.92
2023-05-08T14:50:27.065Z,23.98
2023-05-08T14:52:53.650Z,24.54
2023-05-08T14:55:20.598Z,25.05
2023-05-08T14:57:47.249Z,25.09
2023-05-08T15:00:14.542Z,23.96
2023-05-08T15:02:41.088Z,25.30
2023-05-08T15:05:10.989Z,23.93
2023-05-08T15:07:43.422Z,25.33
2023-05-08T15:10:09.938Z,24.50
2023-05-08T15:12:36.045Z,25.38
2023-05-08T15:15:04.362Z,25.63
2023-05-08T15:17:30.985Z,25.68
2023-05-08T15:19:57.177Z,25.48
2023-05-08T15:22:23.253Z,25.64
2023-05-08T15:24:49.365Z,25.17
2023-05-08T15:27:15.471Z,25.29
2023-05-08T15:29:41.672Z,25.22
2023-05-08T15:32:07.847Z,25.35
2023-05-08T15:34:34.037Z,25.62
2023-05-08T15:37:00.182Z,25.55
2023-05-08T15:39:26.342Z,25.32
2023-05-08T15:41:52.433Z,25.18
2023-05-08T15:44:18.775Z,25.17
2023-05-08T15:46:44.870Z,24.59
2023-05-08T15:49:11.108Z,24.58
2023-05-08T15:51:37.133Z,24.47
2023-05-08T15:54:03.282Z,24.18
2023-05-08T15:56:29.416Z,24.79
2023-05-08T15:58:55.582Z,24.50
2023-05-08T16:01:21.789Z,24.29
2023-05-08T16:03:48.434Z,24.01
2023-05-08T16:06:14.564Z,23.46
2023-05-08T16:08:40.695Z,23.48
2023-05-08T16:11:06.851Z,23.15
2023-05-08T16:13:32.949Z,23.43
2023-05-08T16:16:05.581Z,22.58
2023-05-08T16:18:31.745Z,22.80
2023-05-08T16:20:57.904Z,22.96
2023-05-08T16:23:24.075Z,22.24
2023-05-08T16:25:50.182Z,22.28
2023-05-08T16:28:16.486Z,21.77
2023-05-08T16:30:42.601Z,22.09
2023-05-08T16:33:08.859Z,22.17
2023-05-08T16:35:35.001Z,22.29
2023-05-08T16:38:02.286Z,22.66
2023-05-08T16:40:28.443Z,22.70
2023-05-08T16:42:54.524Z,22.71
2023-05-08T16:45:20.711Z,22.75
2023-05-08T16:47:46.779Z,23.19
2023-05-08T16:50:12.892Z,22.45
2023-05-08T16:52:39.042Z,22.55
2023-05-08T16:55:05.649Z,22.63
2023-05-08T16:57:31.728Z,23.14
2023-05-08T16:59:57.810Z,22.81
2023-05-08T17:02:23.955Z,22.66
2023-05-08T17:04:50.137Z,22.72
2023-05-08T17:07:17.257Z,22.20
2023-05-08T17:09:44.005Z,22.26
2023-05-08T17:12:10.110Z,22.31
2023-05-08T17:14:39.771Z,22.23
2023-05-08T17:17:06.392Z,21.84
2023-05-08T17:19:32.479Z,22.57
2023-05-08T17:21:59.815Z,22.41
2023-05-08T17:24:26.438Z,22.16
2023-05-08T17:26:52.497Z,22.82
2023-05-08T17:29:18.702Z,22.08
2023-05-08T17:31:44.829Z,22.66
2023-05-08T17:34:10.932Z,22.52
2023-05-08T17:36:37.009Z,22.65
2023-05-08T17:39:03.226Z,22.11
2023-05-08T17:41:29.365Z,22.26
2023-05-08T17:43:55.567Z,22.27
2023-05-08T17:46:21.765Z,22.15
2023-05-08T17:48:47.987Z,21.33
2023-05-08T17:51:14.098Z,21.90
2023-05-08T17:53:40.170Z,22.54
2023-05-08T17:56:06.619Z,22.19
2023-05-08T17:58:32.738Z,22.01
2023-05-08T18:00:58.920Z,21.85
2023-05-08T18:03:25.340Z,20.82
2023-05-08T18:05:51.521Z,22.04
2023-05-08T18:08:17.627Z,22.32
2023-05-08T18:10:43.777Z,21.98
2023-05-08T18:13:10.072Z,21.66
2023-05-08T18:15:39.472Z,22.15
2023-05-08T18:18:05.811Z,22.20
2023-05-08T18:20:31.906Z,22.02
2023-05-08T18:22:57.989Z,21.88
2023-05-08T18:25:24.072Z,21.71
2023-05-08T18:27:51.036Z,21.96
2023-05-08T18:30:17.291Z,21.53
2023-05-08T18:32:43.437Z,19.02
2023-05-08T18:35:09.629Z,21.96
2023-05-08T18:37:35.727Z,20.93
2023-05-08T18:40:01.885Z,21.59
2023-05-08T18:42:28.081Z,21.46
2023-05-08T18:44:55.164Z,22.09
2023-05-08T18:47:21.264Z,22.24
2023-05-08T18:49:50.593Z,22.01
2023-05-08T18:52:16.706Z,22.17
2023-05-08T18:54:42.792Z,22.30
2023-05-08T18:57:08.872Z,21.41
2023-05-08T18:59:34.999Z,21.95
2023-05-08T19:02:01.089Z,21.44
2023-05-08T19:04:27.257Z,21.08
2023-05-08T19:06:53.424Z,21.67
2023-05-08T19:09:19.504Z,21.42
2023-05-08T19:11:45.588Z,21.25
2023-05-08T19:14:11.648Z,21.42
2023-05-08T19:16:37.726Z,21.51
2023-05-08T19:19:03.889Z,21.76
2023-05-08T19:21:30.888Z,21.28
2023-05-08T19:23:56.972Z,21.49
2023-05-08T19:26:23.038Z,21.44
2023-05-08T19:28:49.124Z,21.22
2023-05-08T19:31:15.236Z,21.56
2023-05-08T19:33:41.378Z,21.44
2023-05-08T19:36:07.615Z,21.73
2023-05-08T19:38:33.935Z,21.90
2023-05-08T19:41:00.047Z,21.82
2023-05-08T19:43:26.140Z,21.79
2023-05-08T19:45:52.371Z,21.87
2023-05-08T19:48:19.325Z,21.78
2023-05-08T19:50:45.718Z,21.72
2023-05-08T19:53:11.794Z,21.77
2023-05-08T19:55:37.865Z,21.75
2023-05-08T19:58:03.941Z,21.72
2023-05-08T20:00:30.073Z,21.67
2023-05-08T20:02:56.413Z,21.67
2023-05-08T20:05:23.373Z,21.63
2023-05-08T20:07:49.602Z,21.66
2023-05-08T20:10:15.850Z,21.53
2023-05-08T20:12:42.194Z,21.52
2023-05-08T20:15:09.196Z,21.58
2023-05-08T20:17:35.332Z,21.46
2023-05-08T20:20:01.506Z,21.62
2023-05-08T20:22:27.731Z,21.51
2023-05-08T20:24:53.843Z,21.18
2023-05-08T20:27:20.019Z,21.35
2023-05-08T20:29:46.111Z,21.42
2023-05-08T20:32:18.272Z,21.15
2023-05-08T20:34:44.389Z,21.10
2023-05-08T20:37:10.547Z,21.12
2023-05-08T20:39:36.733Z,20.24
2023-05-08T20:42:02.941Z,20.95
2023-05-08T20:44:29.122Z,20.76
2023-05-08T20:46:55.207Z,20.94
2023-05-08T20:49:21.314Z,21.01
2023-05-08T20:51:47.608Z,20.96
2023-05-08T20:54:13.731Z,20.45
2023-05-08T20:56:39.841Z,20.90
2023-05-08T20:59:06.075Z,20.89
2023-05-08T21:01:32.157Z,20.08
2023-05-08T21:03:58.278Z,20.69
2023-05-08T21:06:24.759Z,20.76
2023-05-08T21:08:50.911Z,20.55
2023-05-08T21:11:17.299Z,20.68
2023-05-08T21:13:43.705Z,20.73
2023-05-08T21:16:10.554Z,20.70
2023-05-08T21:18:36.678Z,20.56
2023-05-08T21:21:02.960Z,20.66
2023-05-08T21:23:30.439Z,20.69
2023-05-08T21:25:56.543Z,20.63
2023-05-08T21:28:22.617Z,20.32
2023-05-08T21:30:48.719Z,20.38
2023-05-08T21:33:29.726Z,20.34
2023-05-08T21:35:55.897Z,20.24
2023-05-08T21:38:22.018Z,20.26
2023-05-08T21:40:48.178Z,20.33
2023-05-08T21:43:14.227Z,19.47
2023-05-08T21:45:40.304Z,20.23
2023-05-08T21:48:06.406Z,20.32
2023-05-08T21:50:32.534Z,20.07
2023-05-08T21:52:58.663Z,18.93
2023-05-08T21:55:24.780Z,19.37
2023-05-08T21:57:51.331Z,19.92
2023-05-08T22:00:18.353Z,20.11
2023-05-08T22:02:44.500Z,19.99
2023-05-08T22:05:10.778Z,19.85
2023-05-08T22:07:36.964Z,19.86
2023-05-08T22:10:03.278Z,19.69
2023-05-08T22:12:29.368Z,19.74
2023-05-08T22:14:55.502Z,19.83
2023-05-08T22:17:21.664Z,19.84
2023-05-08T22:19:47.739Z,19.91
2023-05-08T22:22:13.820Z,19.85
2023-05-08T22:24:39.972Z,19.60
2023-05-08T22:27:06.065Z,19.72
2023-05-08T22:29:32.147Z,19.82
2023-05-08T22:31:58.252Z,18.65
2023-05-08T22:34:24.334Z,19.38
2023-05-08T22:36:50.368Z,19.24
2023-05-08T22:39:16.437Z,19.07
2023-05-08T22:41:42.825Z,19.00
2023-05-08T22:44:08.988Z,18.85
2023-05-08T22:46:35.266Z,18.10
2023-05-08T22:49:02.029Z,18.09
2023-05-08T22:51:29.624Z,18.94
2023-05-08T22:53:56.153Z,18.61
2023-05-08T22:56:22.316Z,19.09
2023-05-08T22:58:48.481Z,19.11
2023-05-08T23:01:16.555Z,19.13
2023-05-08T23:03:42.645Z,19.03
2023-05-08T23:06:08.713Z,18.72
2023-05-08T23:08:34.754Z,18.97
2023-05-08T23:11:00.928Z,19.22
2023-05-08T23:13:27.027Z,19.01
2023-05-08T23:15:53.151Z,19.00
2023-05-08T23:18:19.290Z,19.16
2023-05-08T23:20:45.766Z,19.09
2023-05-08T23:23:11.872Z,19.04
2023-05-08T23:25:37.970Z,18.71
2023-05-08T23:28:04.048Z,18.82
2023-05-08T23:30:30.130Z,18.73
2023-05-08T23:32:56.215Z,18.92
2023-05-08T23:35:22.303Z,18.86
2023-05-08T23:37:48.370Z,18.83
2023-05-08T23:40:16.671Z,18.69
2023-05-08T23:42:42.976Z,17.07
2023-05-08T23:45:10.285Z,18.77
2023-05-08T23:47:36.426Z,18.67
2023-05-08T23:50:02.885Z,18.84
2023-05-08T23:52:29.038Z,18.88
2023-05-08T23:54:55.154Z,18.77
2023-05-08T23:57:22.351Z,18.77
2023-05-08T23:59:48.504Z,18.55
